createdAt,value
2019-01-23T00:02:19.056Z,81.87
2019-01-23T00:05:23.928Z,90.97
2019-01-23T00:08:28.771Z,87.20
2019-01-23T00:11:33.677Z,93.77
2019-01-23T00:14:38.525Z,79.40
2019-01-23T00:17:43.382Z,87.40
2019-01-23T00:20:48.228Z,81.57
2019-01-23T00:23:53.148Z,79.77
2019-01-23T00:26:58.102Z,76.77
2019-01-23T00:30:03.237Z,87.37
2019-01-23T00:33:08.170Z,94.43
2019-01-23T00:36:13.107Z,92.77
2019-01-23T00:39:17.943Z,87.40
2019-01-23T00:42:22.867Z,77.73
2019-01-23T00:45:27.820Z,83.07
2019-01-23T00:48:32.700Z,79.53
2019-01-23T00:51:37.624Z,83.67
2019-01-23T00:54:42.472Z,80.80
2019-01-23T00:57:47.306Z,79.00
2019-01-23T01:00:52.201Z,83.57
2019-01-23T01:03:57.133Z,85.63
2019-01-23T01:07:02.091Z,77.00
2019-01-23T01:10:10.486Z,91.13
2019-01-23T01:13:15.445Z,86.27
2019-01-23T01:16:20.336Z,87.00
2019-01-23T01:19:25.216Z,82.83
2019-01-23T01:22:30.103Z,77.47
2019-01-23T01:25:34.984Z,81.30
2019-01-23T01:28:40.099Z,83.55
2019-01-23T01:31:44.968Z,85.17
2019-01-23T01:34:49.929Z,81.73
2019-01-23T01:37:54.830Z,86.43
2019-01-23T01:40:59.711Z,86.20
2019-01-23T01:44:04.881Z,85.87
2019-01-23T01:47:09.727Z,81.33
2019-01-23T01:50:17.121Z,69.87
2019-01-23T01:53:21.974Z,85.47
2019-01-23T01:56:27.836Z,88.50
2019-01-23T01:59:32.682Z,77.05
2019-01-23T02:02:37.556Z,85.10
2019-01-23T02:45:59.053Z,85.93
2019-01-23T02:49:03.999Z,80.63
2019-01-23T02:52:08.861Z,90.00
2019-01-23T02:55:14.332Z,95.53
2019-01-23T02:58:19.243Z,88.33
2019-01-23T03:01:24.145Z,82.27
2019-01-23T03:04:29.125Z,98.73
2019-01-23T03:07:34.100Z,100.83
2019-01-23T03:10:38.954Z,90.87
2019-01-23T03:13:43.795Z,90.67
2019-01-23T03:16:48.634Z,89.73
2019-01-23T03:19:53.646Z,98.00
2019-01-23T03:22:58.515Z,91.67
2019-01-23T03:26:04.504Z,86.10
2019-01-23T03:29:09.408Z,92.23
2019-01-23T03:32:14.306Z,98.17
2019-01-23T03:35:19.273Z,97.60
2019-01-23T03:38:24.149Z,98.57
2019-01-23T03:41:29.022Z,103.27
2019-01-23T03:44:33.892Z,105.37
2019-01-23T03:47:38.878Z,94.10
2019-01-23T03:50:43.751Z,94.60
2019-01-23T03:53:48.618Z,96.37
2019-01-23T03:56:53.489Z,95.57
2019-01-23T03:59:58.355Z,96.63
2019-01-23T04:03:04.345Z,102.60
2019-01-23T04:06:09.227Z,110.60
2019-01-23T04:09:14.202Z,102.92
2019-01-23T04:12:19.069Z,102.78
2019-01-23T04:15:23.924Z,100.80
2019-01-23T04:18:28.762Z,88.10
2019-01-23T04:21:33.602Z,109.77
2019-01-23T04:24:38.522Z,101.67
2019-01-23T04:27:43.653Z,94.40
2019-01-23T04:30:48.563Z,106.83
2019-01-23T04:33:53.433Z,98.43
2019-01-23T04:36:58.340Z,103.80
2019-01-23T04:40:04.725Z,102.17
2019-01-23T04:43:09.555Z,104.75
2019-01-23T04:46:14.497Z,109.15
2019-01-23T04:49:19.384Z,97.57
2019-01-23T04:52:35.115Z,97.67
2019-01-23T04:55:40.418Z,109.22
2019-01-23T04:58:45.248Z,92.80
2019-01-23T05:01:50.121Z,111.17
2019-01-23T05:04:55.021Z,94.30
2019-01-23T05:07:59.954Z,102.67
2019-01-23T05:11:04.818Z,107.57
2019-01-23T05:14:09.703Z,107.30
2019-01-23T05:17:14.568Z,98.00
2019-01-23T05:20:19.427Z,97.50
2019-01-23T05:23:24.337Z,104.63
2019-01-23T05:26:29.230Z,96.67
2019-01-23T05:29:34.212Z,106.83
2019-01-23T05:32:39.138Z,109.30
2019-01-23T05:35:44.023Z,102.50
2019-01-23T05:38:48.862Z,119.60
2019-01-23T05:41:53.788Z,105.00
2019-01-23T05:44:58.674Z,100.10
2019-01-23T05:48:03.542Z,106.10
2019-01-23T05:51:08.417Z,103.23
2019-01-23T05:54:13.322Z,98.17
2019-01-23T05:57:19.117Z,95.00
2019-01-23T06:00:23.949Z,110.70
2019-01-23T06:03:28.825Z,99.30
2019-01-23T06:06:33.685Z,104.87
2019-01-23T06:09:38.564Z,95.13
2019-01-23T06:12:43.420Z,95.83
2019-01-23T06:15:48.268Z,107.40
2019-01-23T06:18:53.187Z,98.45
2019-01-23T06:21:58.118Z,104.53
2019-01-23T06:25:03.061Z,111.43
2019-01-23T06:28:07.901Z,111.27
2019-01-23T06:31:13.328Z,109.17
2019-01-23T06:34:18.233Z,109.50
2019-01-23T06:37:23.068Z,108.83
2019-01-23T06:40:27.937Z,126.97
2019-01-23T06:43:32.785Z,111.90
2019-01-23T06:46:37.656Z,104.97
2019-01-23T06:49:42.488Z,108.97
2019-01-23T06:52:47.447Z,111.73
2019-01-23T06:55:52.334Z,110.13
2019-01-23T06:58:57.191Z,115.83
2019-01-23T07:02:02.104Z,116.20
2019-01-23T07:05:08.698Z,121.03
2019-01-23T07:08:13.548Z,128.47
2019-01-23T07:11:18.370Z,127.80
2019-01-23T07:14:23.246Z,140.43
2019-01-23T07:17:28.139Z,129.23
2019-01-23T07:20:33.079Z,130.53
2019-01-23T07:23:37.950Z,133.93
2019-01-23T07:26:42.778Z,147.33
2019-01-23T07:29:47.698Z,143.83
2019-01-23T07:32:52.584Z,132.50
2019-01-23T07:35:57.784Z,139.03
2019-01-23T07:39:04.388Z,153.60
2019-01-23T07:42:09.319Z,163.10
2019-01-23T07:45:17.523Z,147.57
2019-01-23T07:48:22.357Z,147.67
2019-01-23T07:51:27.232Z,142.33
2019-01-23T07:54:32.090Z,159.77
2019-01-23T07:57:36.982Z,166.17
2019-01-23T08:00:42.930Z,177.10
2019-01-23T08:03:47.795Z,167.37
2019-01-23T08:06:52.633Z,172.87
2019-01-23T08:09:57.483Z,162.53
2019-01-23T08:13:02.323Z,171.93
2019-01-23T08:16:07.174Z,174.77
2019-01-23T08:19:12.008Z,170.63
2019-01-23T08:22:16.891Z,173.10
2019-01-23T08:25:21.734Z,188.47
2019-01-23T08:28:26.617Z,196.95
2019-01-23T08:31:31.461Z,170.00
2019-01-23T08:34:36.316Z,188.03
2019-01-23T08:37:41.134Z,196.00
2019-01-23T08:40:45.999Z,187.27
2019-01-23T08:43:50.844Z,188.67
2019-01-23T08:46:55.706Z,191.40
2019-01-23T08:50:01.516Z,191.57
2019-01-23T08:53:06.682Z,199.10
2019-01-23T08:56:11.735Z,208.67
2019-01-23T08:59:16.658Z,185.90
2019-01-23T09:02:21.575Z,198.50
2019-01-23T09:05:26.843Z,206.57
2019-01-23T09:08:37.560Z,212.30
2019-01-23T09:11:38.394Z,205.67
2019-01-23T09:14:43.321Z,218.10
2019-01-23T09:17:48.269Z,222.30
2019-01-23T09:20:53.125Z,206.23
2019-01-23T09:23:58.094Z,230.57
2019-01-23T09:27:03.023Z,215.17
2019-01-23T09:30:22.895Z,222.43
2019-01-23T09:33:33.547Z,242.50
2019-01-23T09:37:02.586Z,229.35
2019-01-23T09:40:10.685Z,216.27
2019-01-23T09:43:21.661Z,216.83
2019-01-23T09:46:35.515Z,230.87
2019-01-23T09:49:52.109Z,205.67
2019-01-23T09:53:00.042Z,217.17
2019-01-23T09:56:04.973Z,225.07
2019-01-23T09:59:09.947Z,219.57
2019-01-23T10:02:14.819Z,233.33
2019-01-23T10:05:19.692Z,235.87
2019-01-23T10:08:24.602Z,223.37
2019-01-23T10:11:29.456Z,231.30
2019-01-23T10:14:34.309Z,226.63
2019-01-23T10:17:39.140Z,223.87
2019-01-23T10:20:43.994Z,223.50
2019-01-23T10:23:48.848Z,236.87
2019-01-23T10:26:53.706Z,221.23
2019-01-23T10:29:58.648Z,235.67
2019-01-23T10:33:03.493Z,233.20
2019-01-23T10:36:08.518Z,223.93
2019-01-23T10:39:13.394Z,233.33
2019-01-23T10:42:18.439Z,221.53
2019-01-23T10:45:23.442Z,230.90
2019-01-23T10:48:28.394Z,211.50
2019-01-23T10:51:33.351Z,210.63
2019-01-23T10:54:38.250Z,216.03
2019-01-23T10:57:43.513Z,214.10
2019-01-23T11:00:48.432Z,219.50
2019-01-23T11:03:53.302Z,207.18
2019-01-23T11:06:58.187Z,202.77
2019-01-23T11:10:07.431Z,203.27
2019-01-23T11:13:12.850Z,215.37
2019-01-23T11:16:17.757Z,213.53
2019-01-23T11:19:23.514Z,212.47
2019-01-23T11:22:28.376Z,219.77
2019-01-23T11:25:33.224Z,226.57
2019-01-23T11:28:38.101Z,214.93
2019-01-23T11:31:42.949Z,213.20
2019-01-23T11:34:47.881Z,218.20
2019-01-23T11:37:53.744Z,198.20
2019-01-23T11:40:58.601Z,215.82
2019-01-23T11:44:03.848Z,205.20
2019-01-23T11:47:08.693Z,217.23
2019-01-23T11:50:21.792Z,209.80
2019-01-23T11:53:22.388Z,191.80
2019-01-23T11:56:28.158Z,195.80
2019-01-23T11:59:33.047Z,189.10
2019-01-23T12:02:38.913Z,183.60
2019-01-23T12:05:43.833Z,190.50
2019-01-23T12:08:48.721Z,196.93
2019-01-23T12:11:54.478Z,200.43
2019-01-23T12:14:59.382Z,180.87
2019-01-23T12:18:04.285Z,193.27
2019-01-23T12:21:09.174Z,196.70
2019-01-23T12:24:14.098Z,186.37
2019-01-23T12:27:19.018Z,193.30
2019-01-23T12:30:29.841Z,191.33
2019-01-23T12:33:34.834Z,195.73
2019-01-23T12:36:39.722Z,182.13
2019-01-23T12:39:44.598Z,179.00
2019-01-23T12:42:49.653Z,189.37
2019-01-23T12:45:55.557Z,177.20
2019-01-23T12:49:00.638Z,186.67
2019-01-23T12:52:05.514Z,183.15
2019-01-23T12:55:10.629Z,185.63
2019-01-23T12:58:15.566Z,186.47
2019-01-23T13:01:20.731Z,193.83
2019-01-23T13:04:25.660Z,185.00
2019-01-23T13:07:33.465Z,170.07
2019-01-23T13:10:38.213Z,190.77
2019-01-23T13:13:43.097Z,185.00
2019-01-23T13:16:47.972Z,205.22
2019-01-23T13:19:53.026Z,190.33
2019-01-23T13:22:57.970Z,168.80
2019-01-23T13:26:02.853Z,176.17
2019-01-23T13:29:07.705Z,162.57
2019-01-23T13:32:12.604Z,167.53
2019-01-23T13:35:26.478Z,168.53
2019-01-23T13:38:31.397Z,164.63
2019-01-23T13:41:36.247Z,159.50
2019-01-23T13:44:41.085Z,163.97
2019-01-23T13:47:46.032Z,155.93
2019-01-23T13:50:51.005Z,139.33
2019-01-23T13:53:55.850Z,141.30
2019-01-23T13:57:00.695Z,142.60
2019-01-23T14:00:14.263Z,145.30
2019-01-23T14:03:19.161Z,141.63
2019-01-23T14:06:23.999Z,128.13
2019-01-23T14:09:28.944Z,131.17
2019-01-23T14:12:33.893Z,123.82
2019-01-23T14:15:39.889Z,122.57
2019-01-23T14:18:44.841Z,122.97
2019-01-23T14:21:49.824Z,131.27
2019-01-23T14:24:54.734Z,124.97
2019-01-23T14:27:59.926Z,129.97
2019-01-23T14:31:04.988Z,123.00
2019-01-23T14:34:09.827Z,112.30
2019-01-23T14:37:14.666Z,107.07
2019-01-23T14:40:20.473Z,109.53
2019-01-23T14:43:26.301Z,112.27
2019-01-23T14:46:31.170Z,107.57
2019-01-23T14:49:36.114Z,103.67
2019-01-23T14:52:41.264Z,102.10
2019-01-23T14:55:47.240Z,100.57
2019-01-23T14:58:52.090Z,103.83
2019-01-23T15:01:56.929Z,99.80
2019-01-23T15:05:01.769Z,89.07
2019-01-23T15:08:06.638Z,87.27
2019-01-23T15:11:11.496Z,91.93
2019-01-23T15:14:16.483Z,88.43
2019-01-23T15:17:21.344Z,89.50
2019-01-23T15:20:29.404Z,85.60
2019-01-23T15:23:34.334Z,87.43
2019-01-23T15:26:39.162Z,91.63
2019-01-23T15:29:44.035Z,90.90
2019-01-23T15:32:49.133Z,84.57
2019-01-23T15:35:54.061Z,91.37
2019-01-23T15:38:59.188Z,80.13
2019-01-23T15:42:04.150Z,73.97
2019-01-23T15:45:10.921Z,65.23
2019-01-23T15:48:16.763Z,66.47
2019-01-23T15:51:21.657Z,68.25
2019-01-23T15:54:26.501Z,62.93
2019-01-23T15:57:31.333Z,66.07
2019-01-23T16:00:36.168Z,60.03
2019-01-23T16:03:41.040Z,70.70
2019-01-23T16:06:45.901Z,62.50
2019-01-23T16:09:51.102Z,65.22
2019-01-23T16:12:55.947Z,61.47
2019-01-23T16:16:00.823Z,61.33
2019-01-23T16:19:05.874Z,66.22
2019-01-23T16:22:10.762Z,64.57
2019-01-23T16:25:17.008Z,66.20
2019-01-23T16:28:21.937Z,63.53
2019-01-23T16:31:27.102Z,65.37
2019-01-23T16:34:32.001Z,57.53
2019-01-23T16:37:36.895Z,63.53
2019-01-23T16:40:42.749Z,51.37
2019-01-23T16:43:47.682Z,60.67
2019-01-23T16:46:52.549Z,55.97
2019-01-23T16:49:57.383Z,51.47
2019-01-23T16:53:02.269Z,57.97
2019-01-23T16:56:07.196Z,58.70
2019-01-23T16:59:12.068Z,57.63
2019-01-23T17:02:16.989Z,53.13
2019-01-23T17:05:24.492Z,52.37
2019-01-23T17:08:29.430Z,51.67
2019-01-23T17:11:34.269Z,60.70
2019-01-23T17:14:39.160Z,50.13
2019-01-23T17:17:45.393Z,53.57
2019-01-23T17:20:50.277Z,51.25
2019-01-23T17:23:55.139Z,55.70
2019-01-23T17:27:00.980Z,49.00
2019-01-23T17:30:12.470Z,51.50
2019-01-23T17:33:17.606Z,53.68
2019-01-23T17:36:22.472Z,53.93
2019-01-23T17:39:27.898Z,51.23
2019-01-23T17:42:33.927Z,56.90
2019-01-23T17:45:39.914Z,51.03
2019-01-23T17:48:44.863Z,56.47
2019-01-23T17:51:49.726Z,51.70
2019-01-23T17:54:54.562Z,50.43
2019-01-23T17:57:59.855Z,49.60
2019-01-23T18:01:05.222Z,50.63
2019-01-23T18:04:11.676Z,47.20
2019-01-23T18:07:16.598Z,48.60
2019-01-23T18:10:21.694Z,51.37
2019-01-23T18:13:26.576Z,50.23
2019-01-23T18:16:31.514Z,52.83
2019-01-23T18:19:36.453Z,57.47
2019-01-23T18:22:41.399Z,46.87
2019-01-23T18:25:46.565Z,50.17
2019-01-23T18:28:51.390Z,53.53
2019-01-23T18:31:56.311Z,57.73
2019-01-23T18:35:16.094Z,49.70
2019-01-23T18:38:46.798Z,49.17
2019-01-23T18:41:54.773Z,49.77
2019-01-23T18:45:09.114Z,54.10
2019-01-23T18:48:29.068Z,54.67
2019-01-23T18:51:35.158Z,58.87
2019-01-23T18:54:41.703Z,55.47
2019-01-23T18:57:46.571Z,55.60
2019-01-23T19:00:51.446Z,55.70
2019-01-23T19:03:56.348Z,47.40
2019-01-23T19:07:01.271Z,48.28
2019-01-23T19:10:09.181Z,48.53
2019-01-23T19:13:14.017Z,53.77
2019-01-23T19:16:19.897Z,53.33
2019-01-23T19:19:24.731Z,54.90
2019-01-23T19:22:29.618Z,50.70
2019-01-23T19:25:34.554Z,53.13
2019-01-23T19:28:39.448Z,57.60
2019-01-23T19:31:44.440Z,56.97
2019-01-23T19:34:49.293Z,53.68
2019-01-23T19:37:54.175Z,58.70
2019-01-23T19:40:59.006Z,50.87
2019-01-23T19:44:04.970Z,54.43
2019-01-23T19:47:11.850Z,57.95
2019-01-23T19:50:16.776Z,57.07
2019-01-23T19:53:21.752Z,58.87
2019-01-23T19:56:27.204Z,56.80
2019-01-23T19:59:32.293Z,55.83
2019-01-23T20:02:37.126Z,49.87
2019-01-23T20:05:42.018Z,53.93
2019-01-23T20:08:46.904Z,56.93
2019-01-23T20:11:51.827Z,49.97
2019-01-23T20:14:56.758Z,53.20
2019-01-23T20:18:01.622Z,54.57
2019-01-23T20:21:06.549Z,55.98
2019-01-23T20:24:11.420Z,58.27
2019-01-23T20:27:17.733Z,60.97
2019-01-23T20:30:25.645Z,57.33
2019-01-23T20:33:30.514Z,54.43
2019-01-23T20:36:35.529Z,52.13
2019-01-23T20:39:40.610Z,56.13
2019-01-23T20:42:46.982Z,56.67
2019-01-23T20:45:51.829Z,57.10
2019-01-23T20:48:56.706Z,56.67
2019-01-23T20:52:01.577Z,61.77
2019-01-23T20:55:06.817Z,57.67
2019-01-23T20:58:11.722Z,61.17
2019-01-23T21:01:16.554Z,53.07
2019-01-23T21:04:21.448Z,54.30
2019-01-23T21:07:26.474Z,62.00
2019-01-23T21:10:31.339Z,57.10
2019-01-23T21:13:36.203Z,52.53
2019-01-23T21:16:41.051Z,59.40
2019-01-23T21:19:45.949Z,56.00
2019-01-23T21:22:50.801Z,57.27
2019-01-23T21:25:55.668Z,50.43
2019-01-23T21:29:00.599Z,57.83
2019-01-23T21:32:05.530Z,63.13
2019-01-23T21:35:10.938Z,59.57
2019-01-23T21:38:15.768Z,60.07
2019-01-23T21:41:20.638Z,61.50
2019-01-23T21:44:26.409Z,56.18
2019-01-23T21:47:31.329Z,59.10
2019-01-23T21:50:36.214Z,59.07
2019-01-23T21:53:42.031Z,51.87
2019-01-23T21:56:46.932Z,58.33
2019-01-23T21:59:51.838Z,57.75
2019-01-23T22:02:58.529Z,58.37
2019-01-23T22:06:03.454Z,60.53
2019-01-23T22:09:09.207Z,54.20
2019-01-23T22:12:14.057Z,52.43
2019-01-23T22:15:22.106Z,56.60
2019-01-23T22:18:26.946Z,58.90
2019-01-23T22:21:31.834Z,50.03
2019-01-23T22:24:36.772Z,53.40
2019-01-23T22:27:41.689Z,50.67
2019-01-23T22:30:46.530Z,56.30
2019-01-23T22:33:56.150Z,54.17
2019-01-23T22:36:58.009Z,51.23
2019-01-23T22:40:03.080Z,44.80
2019-01-23T22:43:11.264Z,57.03
2019-01-23T22:46:14.563Z,51.57
2019-01-23T22:49:19.489Z,48.70
2019-01-23T22:52:24.355Z,53.48
2019-01-23T22:55:29.338Z,52.00
2019-01-23T22:58:34.194Z,51.10
2019-01-23T23:01:39.030Z,52.40
2019-01-23T23:04:43.920Z,47.77
2019-01-23T23:07:48.788Z,59.23
2019-01-23T23:10:53.776Z,59.07
2019-01-23T23:13:58.712Z,56.10
2019-01-23T23:17:03.598Z,55.43
2019-01-23T23:20:10.778Z,54.27
2019-01-23T23:23:15.730Z,56.17
2019-01-23T23:26:20.578Z,55.90
2019-01-23T23:29:25.413Z,58.53
2019-01-23T23:32:30.467Z,60.50
2019-01-23T23:35:35.316Z,55.70
2019-01-23T23:38:41.074Z,57.97
2019-01-23T23:41:45.971Z,54.83
2019-01-23T23:44:50.904Z,55.33
2019-01-23T23:47:55.810Z,55.53
2019-01-23T23:51:00.650Z,50.47
2019-01-23T23:54:05.698Z,55.47
2019-01-23T23:57:10.630Z,51.37
